Hathaway, MT (59333)

4:04 AM MST on February 11, 2016 (GMT -0700)
Graveyard Creek Road | | Change Station
CLOSE
Current Station
Personal Weather Station
Location: Miles City, MT
Elevation: 3028 ft
Nearby Weather Stations

Elev 3028 ft 46.18 °N, 106.07 °W | Updated 43 minutes ago

Overcast
Overcast
32.0 °F
Feels Like 32 °F
N
0.0
Wind Variable Wind from SSW

Today
High -- | Low -- °F
--% Chance of Precip.
Yesterday
High -- | Low -- °F
Precip. -- in
Pressure 30.02 in
Visibility 7.0 miles
Clouds Overcast 9500 ft
Windchill 32 °F
Dew Point 30 °F
Humidity 92%
Rainfall 0.00 in
Snow Depth Not available.
7:14 AM 5:23 PM
Waxing Crescent, 11% visible
METAR KMLS 111053Z AUTO 01004KT 7SM OVC095 00/M02 A2997 RMK AO2 SLP164 T00001022
Pressure 30.02 in
Visibility 7.0 miles
Clouds Overcast 9500 ft
Windchill 32 °F
Dew Point 30 °F
Humidity 92%
Rainfall 0.00 in
Snow Depth Not available.
7:14 AM 5:23 PM
Waxing Crescent, 11% visible
METAR KMLS 111053Z AUTO 01004KT 7SM OVC095 00/M02 A2997 RMK AO2 SLP164 T00001022

10-Day Weather Forecast

Almanac

Astronomy

Feb. 11, 2016 Rise Set
Actual Time
Civil Twilight
Nautical Twilight
Astronomical Twilight
Moon
Length of Visible Light
Length of Day
Tomorrow will be .
, % of the Moon is Illuminated

Today's Extremes

State Highs State Lows

Community

WunderPhotos

Upload Photos

1,892,030 photos uploaded!

WunderBlog® & News

Nearby

Air Quality

  Air Quality AQ Index Pollutant
Not available.

Snow Depth

Station Depth Elevation

Earthquake Activity

City Distance Mag. Time & Date
Minimum magnitude displayed is 2.5.

Coastal Water Temperatures

Place Temperature

Stations

Nearby Weather Stations

Station Location Temp. Windchill Dew Point Humidity Wind Precip. Elev Updated Type
                   

Watches & Warnings

There are currently no watches in effect.